x

Buoy F01 - West Penobscot Bay (44033) Wave Buoy

10:04am - Sun 26th Feb 2017 All times are EST. -5 hours from GMT.

  • Sig Wave height 2.0ft
  • Peak Period 3s
  • Wind
    20mph, 27mph gusts
  • Sea Temp 37°f
  • Air Temp 39°f
  • Sea Pressure 1003.2mb
  • Buoy F01 - West Penobscot Bay
  • Buoy F01 - West Penobscot Bay

More Historic Weather Station data

Upgrade to MSW Pro to gain access to the past 30 days of data for over 8000 Wavebouys and Weather Stations around the globe.

Join Pro

Comparision Forecast

View Surf forecast
   
Sun 02/26 10:04am 2ft 3s 20 27 mph 1003.2mb 37f 39f
9:04am 1.3ft 2s 16 27 mph 1002.4mb 37f 39f
8:04am 1.3ft 5s 18 22 mph 1001.3mb 37f 38f
7:04am 1.6ft 4s 16 18 mph 1000mb 37f 38f
6:04am 1.6ft 4s 11 13 mph 998.8mb 37f 39f
5:04am 1.6ft 5s 18 22 mph 997.6mb 37f 41f
4:04am 2ft 5s 13 18 mph 995.5mb 37f 41f
3:04am 2.5ft 5s 18 20 mph 993.8mb 37f 44f
2:04am 2.5ft 5s 9 13 mph 993.9mb 37f 43f
1:04am 3ft 5s 11
mph
993.7mb 37f 42f
12:04am 2.5ft 5s 20 22 mph 993.6mb 38f 44f
Sat 02/25 11:04pm 2.5ft 5s 20 22 mph 994.9mb 38f 43f
10:04pm 2.5ft 4s 16
mph
996.6mb 38f 42f
9:04pm 2ft 4s 13 16 mph 998.5mb 38f 42f
8:04pm 2ft 3s 11 13 mph 1000.1mb 38f 42f
7:04pm 2.5ft 3s 16 18 mph 1000.7mb 37f 43f
6:04pm 2.5ft 4s 13 18 mph 1002.4mb 37f 43f
5:04pm 2.5ft 5s 11 13 mph 1004.1mb 37f 42f
4:04pm 2ft 5s 13
mph
1005.6mb 38f 43f
3:04pm 2.5ft 5s 9 11 mph 1006.5mb 39f 44f
2:04pm 2ft 5s 4 7 mph 1007.1mb 39f 46f
1:04pm 2.5ft 5s 4 7 mph 1007.8mb 38f 46f
12:04pm 2.5ft 5s 2
mph
1008.9mb 38f 44f
11:04am 2ft 5s  -  2 mph 1009.9mb 38f 46f
10:04am 1.6ft 5s 4
mph
1010.6mb 37f 42f
9:04am 2.5ft 5s 4 7 mph 1010.9mb 37f 43f
8:04am 2.5ft 5s 7
mph
1011.2mb 37f 43f
7:04am 2.5ft 5s 4 7 mph 1011.1mb 37f 41f
5:04am 2.5ft 5s 2 4 mph 1011.7mb 37f 41f
4:04am 2.5ft 5s 7
mph
1011.5mb 37f 40f
3:04am 2.5ft 6s 7
mph
1011.1mb 37f 41f
2:04am 3ft 5s 4 7 mph 1011.1mb 37f 41f
12:04am 3ft 5s 11
mph
1010.9mb 37f 43f
Fri 02/24 11:04pm 2.5ft 5s 9 11 mph 1010.3mb 37f 42f
10:04pm 2.5ft 5s 9 11 mph 1010.4mb 37f 43f
9:04pm 1.6ft 5s 9
mph
1010.6mb 37f 43f
8:04pm 2ft 5s 4
mph
1011.1mb 37f 41f
7:04pm 2.5ft 5s 7
mph
1011.1mb 37f 40f
6:04pm 2.5ft 6s 7
mph
1011.3mb 37f 40f
5:04pm 2ft 5s 2 4 mph 1011.5mb 37f 41f
4:04pm 2.5ft 6s 2 4 mph 1011.3mb 38f 41f
3:04pm 2.5ft 6s 2 4 mph 1011.8mb 38f 41f
2:04pm 2.5ft 6s 9 11 mph 1012mb 38f 40f
1:04pm 2.5ft 6s  -  2 mph 1012.2mb 37f 42f
12:04pm 2.5ft 6s 4
mph
1012.8mb 37f 40f
11:04am 2.5ft 6s 4
mph
1013.6mb 37f 40f
10:04am 2.5ft 6s 2 4 mph 1014mb 37f 40f
9:04am 2.5ft 6s 4 7 mph 1013mb 37f 40f
8:04am 2.5ft 6s 4
mph
1012.8mb 37f 40f
7:04am 3ft 6s 4
mph
1012.8mb 37f 40f
6:04am 2.5ft 6s 7 9 mph 1012.2mb 37f 40f
5:04am 2.5ft 6s 7 9 mph 1011.3mb 37f 39f
4:04am 2.5ft 6s 4 7 mph 1010.6mb 37f 40f
3:04am 3ft 6s 4
mph
1009.9mb 37f 42f
2:04am 3ft 6s 4 7 mph 1009.6mb 37f 41f
1:04am 3.5ft 6s 4 7 mph 1009mb 37f 42f
12:04am 3ft 5s 13 16 mph 1008.3mb 37f 43f
Thu 02/23 11:04pm 3.5ft 5s 18 20 mph 1007.5mb 37f 43f
10:04pm 3.5ft 5s 18 22 mph 1006.8mb 37f 43f
9:04pm 3.5ft 5s 16 20 mph 1006.5mb 37f 43f
8:04pm 2.5ft 5s 11 16 mph 1006.6mb 37f 42f
7:04pm 3ft 5s 7 9 mph 1006.3mb 37f 40f
6:04pm 2ft 4s 7 9 mph 1006.5mb 37f 40f
5:04pm 2ft 4s 4 7 mph 1006.2mb 37f 39f
4:04pm 2.5ft 4s 7 9 mph 1006.4mb 37f 40f
3:04pm 2ft 4s 7 9 mph 1007.3mb 37f 38f
2:04pm 2.5ft 11s 11 13 mph 1007.6mb 37f 39f
1:04pm 1.6ft 4s 9
mph
1008.3mb 37f 39f
12:04pm 1.3ft 3s 9 11 mph 1009.3mb 37f 38f
11:04am 1ft 4s 9 11 mph 1009.9mb 37f 39f
10:04am 1.6ft 11s 7 9 mph 1010.2mb 37f 40f
9:04am 1.6ft 11s 4
mph
1010.6mb 37f 40f
8:04am 1.6ft 11s 2
mph
1011.3mb 37f 37f
7:04am 1.6ft 11s 4
mph
1011.3mb 37f 36f
6:04am 1.3ft 11s 2
mph
1010.9mb 36f 36f
5:04am 1.3ft 8s 4
mph
1011.1mb 37f 36f